METAR Data
IDs: Format: Raw Decoded Include TAF

Data at: 1142 UTC 16 Oct 2018

PADL 161056Z AUTO 10008KT 10SM FEW060 SCT075 OVC095 08/07 A2910 RMK AO2 SLP858 T00830072
PADL 160956Z AUTO 13008KT 10SM BKN065 OVC080 09/07 A2909 RMK AO2 SLP857 T00890072
PADL 160856Z AUTO 11009KT 10SM OVC080 09/07 A2909 RMK AO2 SLP855 T00890072 401220067 51003
PADL 160832Z AUTO 11009KT 10SM SCT013 OVC080 09/07 A2909 RMK AO2
PADL 160744Z AUTO 11012KT 10SM BKN013 OVC080 09/07 A2909 RMK AO2
PADL 160656Z AUTO 10009KT 10SM OVC100 09/07 A2908 RMK AO2 SLP854 T00890072
PADL 160556Z AUTO 09010KT 10SM FEW080 BKN095 OVC110 09/07 A2908 RMK AO2 SLP852 T00890072 10122 20089 55000
PADL 160509Z 11009KT 10SM SCT015 OVC075 09/08 A2908 RMK AO2
PADL 160456Z 10008KT 10SM BKN015 OVC075 09/08 A2908 RMK AO2 SLP852 T00940078
PADL 160356Z 10009KT 10SM BKN017 10/08 A2908 RMK AO2 SLP851 T01000078
PADL 160345Z 10008KT 10SM BKN017 BKN095 10/08 A2908 RMK AO2
PADL 160327Z 10009KT 10SM SCT017 BKN100 10/08 A2908 RMK AO2
PADL 160256Z 11011KT 10SM BKN015 OVC075 11/08 A2908 RMK AO2 SLP852 T01060083 56012
PADL 160249Z 11009KT 10SM BKN015 BKN075 OVC100 11/08 A2908 RMK AO2
PADL 160236Z 11011G18KT 10SM FEW015 BKN075 OVC100 11/08 A2908 RMK AO2
PADL 160209Z 11016G20KT 10SM BKN025 BKN100 11/08 A2908 RMK AO2
PADL 160156Z 12012G20KT 10SM SCT025 BKN080 12/08 A2908 RMK AO2 PK WND 12027/0124 SLP853 T01170078
PADL 160056Z 12012G19KT 10SM SCT032 BKN100 12/07 A2909 RMK AO2 SLP857 T01170072
PADL 152356Z 10011G18KT 10SM FEW029 12/08 A2912 RMK AO2 SLP865 T01170083 10117 20072 58018
PADL 152256Z 09010KT 10SM FEW018 SCT040 BKN110 12/08 A2913 RMK AO2 SLP870 T01170083
PADL 152156Z 08013KT 10SM FEW034 BKN043 11/08 A2916 RMK AO2 SLP878 T01110083
PADL 152056Z 07016G21KT 10SM FEW018 SCT037 BKN120 10/07 A2917 RMK AO2 SLP883 T01000072 56015
PADL 151956Z 07011G19KT 10SM FEW015 SCT035 BKN120 09/07 A2918 RMK AO2 SLP887 T00940072
PADL 151856Z 06012G18KT 10SM FEW015 BKN040 08/07 A2920 RMK AO2 SLP892 T00780067
PADL 151756Z 07010G16KT 10SM FEW015 OVC045 07/07 A2921 RMK AO2 RAE24 SLP898 P0000 60018 T00720067 10072 20072 58011
PADL 151656Z 06011G21KT 10SM -RA BKN035 OVC060 07/07 A2922 RMK AO2 SLP900 P0001 T00720067
PADL 151556Z 07011G17KT 10SM -RA OVC036 07/07 A2924 RMK AO2 SLP908 P0005 T00720067
PADL 151456Z AUTO 06011G16KT 10SM -RA OVC045 07/06 A2924 RMK AO2 RAE1357B34 SLP908 P0000 60012 T00720061 56021
PADL 151356Z AUTO 05011G18KT 10SM -RA OVC047 07/06 A2926 RMK AO2 SLP912 P0004 T00720061
PADL 151342Z AUTO 05012KT 10SM -RA FEW021 SCT032 OVC045 07/06 A2925 RMK AO2 P0004
PADL 151256Z AUTO 08010G17KT 8SM -RA BKN025 OVC042 07/06 A2929 RMK AO2 SLP924 P0008 T00720061
PADL 151229Z AUTO 07011KT 8SM -RA OVC029 07/06 A2930 RMK AO2 P0005
PADL 151156Z AUTO 07014G20KT 9SM -RA OVC041 07/06 A2931 RMK AO2 SLP929 P0008 60012 70012 T00720061 10078 20067 58021
PADL 151056Z AUTO 07014G20KT 10SM -RA OVC043 07/06 A2933 RMK AO2 SLP936 P0001 T00720061
PADL 150956Z AUTO 07011G18KT 9SM -RA OVC047 07/06 A2937 RMK AO2 RAE15B41 SLP951 P0001 T00720056
PADL 150856Z AUTO 06013G20KT 10SM -RA FEW041 BKN048 OVC090 07/06 A2937 RMK AO2 RAB18 SLP950 P0002 60002 T00720056 401060056 58017
PADL 150656Z AUTO 08016G21KT 10SM -RA BKN049 OVC110 07/05 A2941 RMK AO2 RAE09B50 SLP966 P0000 T00720050
PADL 150556Z AUTO 07011G20KT 10SM -RA BKN047 OVC060 07/05 A2942 RMK AO2 RAB28 SLP967 P0000 60000 T00720050 10106 20072 58004
PADL 150456Z 07018G28KT 10SM FEW050 BKN070 OVC110 08/04 A2942 RMK AO2 SLP968 T00780039
PADL 150356Z 07013G18KT 10SM OVC070 08/04 A2943 RMK AO2 SLP972 T00830044
PADL 150256Z 06017G26KT 10SM BKN055 09/05 A2943 RMK AO2 SLP972 T00940050 58033
PADL 150156Z 07010KT 10SM BKN050 10/04 A2947 RMK AO2 SLP985 T01000044
PADL 142356Z 08009KT 10SM CLR 10/05 A2953 RMK AO2 SLP005 T01000050 10106 20061 56024